createdAt,value
2022-08-28T00:01:01.305Z,17.15
2022-08-28T00:04:04.539Z,17.27
2022-08-28T00:07:07.189Z,17.24
2022-08-28T00:10:14.639Z,17.44
2022-08-28T00:13:20.484Z,17.25
2022-08-28T00:16:24.018Z,17.37
2022-08-28T00:19:29.371Z,17.19
2022-08-28T00:22:32.016Z,17.31
2022-08-28T00:25:37.257Z,17.32
2022-08-28T00:28:38.860Z,17.05
2022-08-28T00:31:41.532Z,17.33
2022-08-28T00:34:44.197Z,17.26
2022-08-28T00:37:48.152Z,17.40
2022-08-28T00:40:56.551Z,17.07
2022-08-28T00:44:11.091Z,17.22
2022-08-28T00:47:14.069Z,17.25
2022-08-28T00:50:19.363Z,17.36
2022-08-28T00:53:23.446Z,17.37
2022-08-28T00:56:32.956Z,17.02
2022-08-28T00:59:36.344Z,17.32
2022-08-28T01:02:39.144Z,16.87
2022-08-28T01:05:46.684Z,16.98
2022-08-28T01:08:52.088Z,17.23
2022-08-28T01:12:01.896Z,16.93
2022-08-28T01:15:11.774Z,17.01
2022-08-28T01:18:17.565Z,17.08
2022-08-28T01:21:26.564Z,17.04
2022-08-28T01:24:32.103Z,17.06
2022-08-28T01:27:34.990Z,17.08
2022-08-28T01:30:37.735Z,17.31
2022-08-28T01:33:42.399Z,17.20
2022-08-28T01:36:46.113Z,17.07
2022-08-28T01:39:50.093Z,17.05
2022-08-28T01:42:52.751Z,16.98
2022-08-28T01:46:00.063Z,17.07
2022-08-28T01:49:02.966Z,17.02
2022-08-28T01:52:05.786Z,17.22
2022-08-28T01:55:11.376Z,17.14
2022-08-28T01:58:14.674Z,17.33
2022-08-28T02:01:20.260Z,17.26
2022-08-28T02:04:31.724Z,17.24
2022-08-28T02:07:35.193Z,16.98
2022-08-28T02:10:41.181Z,17.05
2022-08-28T02:13:44.168Z,17.19
2022-08-28T02:16:47.178Z,17.09
2022-08-28T02:19:50.497Z,17.00
2022-08-28T02:22:53.134Z,16.95
2022-08-28T02:25:57.055Z,16.93
2022-08-28T02:28:59.684Z,17.04
2022-08-28T02:32:02.375Z,16.77
2022-08-28T02:35:06.579Z,16.95
2022-08-28T02:38:14.826Z,17.11
2022-08-28T02:41:18.905Z,17.09
2022-08-28T02:44:21.509Z,17.04
2022-08-28T02:47:24.087Z,17.01
2022-08-28T02:50:26.655Z,17.10
2022-08-28T02:53:29.820Z,17.14
2022-08-28T02:56:34.309Z,17.05
2022-08-28T02:59:38.295Z,17.08
2022-08-28T03:02:42.246Z,16.56
2022-08-28T03:05:44.865Z,16.75
2022-08-28T03:08:47.508Z,16.87
2022-08-28T03:11:53.886Z,16.94
2022-08-28T03:14:56.874Z,17.00
2022-08-28T03:17:59.590Z,17.01
2022-08-28T03:21:02.770Z,16.92
2022-08-28T03:24:05.671Z,16.82
2022-08-28T03:27:10.358Z,16.77
2022-08-28T03:30:13.679Z,16.62
2022-08-28T03:33:16.430Z,16.59
2022-08-28T03:36:24.655Z,16.89
2022-08-28T03:39:27.259Z,16.65
2022-08-28T03:42:31.538Z,16.62
2022-08-28T03:45:35.214Z,16.83
2022-08-28T03:48:39.090Z,16.74
2022-08-28T03:51:47.507Z,16.86
2022-08-28T03:54:50.430Z,16.76
2022-08-28T03:57:54.958Z,16.72
2022-08-28T04:00:57.603Z,16.68
2022-08-28T04:04:00.365Z,16.53
2022-08-28T04:07:02.944Z,16.56
2022-08-28T04:10:06.445Z,16.45
2022-08-28T04:13:10.805Z,16.62
2022-08-28T04:16:18.981Z,16.60
2022-08-28T04:19:22.524Z,16.58
2022-08-28T04:22:25.153Z,16.68
2022-08-28T04:25:28.310Z,16.55
2022-08-28T04:28:32.869Z,16.53
2022-08-28T04:31:36.037Z,16.62
2022-08-28T04:34:39.143Z,16.60
2022-08-28T04:37:43.614Z,16.60
2022-08-28T04:40:46.212Z,16.45
2022-08-28T04:43:51.846Z,16.57
2022-08-28T04:46:54.415Z,16.63
2022-08-28T04:49:58.865Z,16.58
2022-08-28T04:53:01.513Z,16.52
2022-08-28T04:56:06.495Z,16.51
2022-08-28T04:59:11.600Z,16.36
2022-08-28T05:02:14.229Z,16.50
2022-08-28T05:05:17.072Z,16.45
2022-08-28T05:08:23.998Z,16.44
2022-08-28T05:11:33.798Z,16.64
2022-08-28T05:14:39.836Z,16.44
2022-08-28T05:17:42.473Z,16.55
2022-08-28T05:20:46.482Z,16.65
2022-08-28T05:23:49.831Z,16.63
2022-08-28T05:26:52.572Z,16.47
2022-08-28T05:30:01.606Z,16.57
2022-08-28T05:33:05.112Z,16.59
2022-08-28T05:36:08.796Z,16.69
2022-08-28T05:39:12.664Z,16.64
2022-08-28T05:42:15.474Z,16.61
2022-08-28T05:45:20.946Z,16.62
2022-08-28T05:48:23.498Z,16.73
2022-08-28T05:51:27.601Z,16.85
2022-08-28T05:54:30.268Z,16.93
2022-08-28T05:57:32.878Z,16.76
2022-08-28T06:00:36.835Z,16.93
2022-08-28T06:03:40.639Z,17.08
2022-08-28T06:06:44.033Z,17.05
2022-08-28T06:09:46.658Z,16.93
2022-08-28T06:12:49.337Z,17.12
2022-08-28T06:15:53.488Z,17.36
2022-08-28T06:18:57.622Z,17.06
2022-08-28T06:22:01.869Z,17.30
2022-08-28T06:25:14.172Z,17.22
2022-08-28T06:28:19.244Z,17.50
2022-08-28T06:31:26.514Z,17.61
2022-08-28T06:34:30.594Z,17.59
2022-08-28T06:37:33.201Z,17.93
2022-08-28T06:40:40.051Z,18.04
2022-08-28T06:43:43.041Z,17.95
2022-08-28T06:46:48.506Z,18.23
2022-08-28T06:49:51.362Z,18.20
2022-08-28T06:52:53.917Z,18.24
2022-08-28T06:56:01.704Z,18.50
2022-08-28T06:59:05.038Z,18.60
2022-08-28T07:02:09.366Z,18.73
2022-08-28T07:05:12.139Z,18.83
2022-08-28T07:08:14.794Z,18.90
2022-08-28T07:11:21.922Z,19.01
2022-08-28T07:14:28.830Z,19.20
2022-08-28T07:17:32.801Z,19.11
2022-08-28T07:20:35.417Z,19.21
2022-08-28T07:23:40.065Z,19.27
2022-08-28T07:26:44.442Z,19.53
2022-08-28T07:29:47.054Z,19.59
2022-08-28T07:32:51.003Z,19.72
2022-08-28T07:35:53.682Z,19.65
2022-08-28T07:38:56.651Z,19.83
2022-08-28T07:41:59.271Z,19.49
2022-08-28T07:45:01.066Z,19.42
2022-08-28T07:48:11.457Z,19.78
2022-08-28T07:51:14.296Z,19.81
2022-08-28T07:54:18.226Z,19.87
2022-08-28T07:57:21.478Z,20.16
2022-08-28T08:00:25.583Z,19.84
2022-08-28T08:03:30.831Z,20.04
2022-08-28T08:06:34.450Z,20.25
2022-08-28T08:09:38.778Z,20.31
2022-08-28T08:12:42.683Z,20.43
2022-08-28T08:15:45.548Z,20.41
2022-08-28T08:18:50.637Z,20.71
2022-08-28T08:21:55.250Z,20.73
2022-08-28T08:24:57.976Z,20.90
2022-08-28T08:28:00.657Z,21.12
2022-08-28T08:31:08.418Z,20.99
2022-08-28T08:34:12.416Z,20.84
2022-08-28T08:37:15.118Z,20.81
2022-08-28T08:40:20.047Z,21.02
2022-08-28T08:43:23.897Z,21.03
2022-08-28T08:46:34.630Z,21.15
2022-08-28T08:49:44.677Z,21.44
2022-08-28T08:53:03.230Z,21.17
2022-08-28T08:56:06.805Z,20.92
2022-08-28T08:59:13.549Z,21.31
2022-08-28T09:02:22.343Z,21.15
2022-08-28T09:05:48.882Z,21.16
2022-08-28T09:08:57.966Z,21.38
2022-08-28T09:12:03.180Z,21.66
2022-08-28T09:15:14.135Z,21.97
2022-08-28T09:18:22.732Z,22.43
2022-08-28T09:21:29.616Z,22.78
2022-08-28T09:24:35.401Z,22.65
2022-08-28T09:27:46.828Z,22.29
2022-08-28T09:30:56.996Z,22.59
2022-08-28T09:34:18.789Z,23.53
2022-08-28T09:37:27.512Z,23.96
2022-08-28T09:40:51.771Z,23.92
2022-08-28T09:43:53.461Z,23.58
2022-08-28T09:46:56.099Z,23.26
2022-08-28T09:50:19.074Z,23.03
2022-08-28T09:53:23.481Z,22.83
2022-08-28T09:56:31.991Z,22.38
2022-08-28T09:59:34.669Z,22.35
2022-08-28T10:02:44.588Z,22.45
2022-08-28T10:05:55.971Z,22.46
2022-08-28T10:09:17.030Z,24.12
2022-08-28T10:12:34.798Z,24.71
2022-08-28T10:15:54.255Z,24.04
2022-08-28T10:19:06.128Z,23.36
2022-08-28T10:22:25.542Z,22.64
2022-08-28T10:25:40.092Z,23.68
2022-08-28T10:28:52.189Z,23.43
2022-08-28T10:32:11.187Z,23.18
2022-08-28T10:35:19.234Z,22.78
2022-08-28T10:38:30.252Z,23.31
2022-08-28T10:41:42.732Z,22.95
2022-08-28T10:44:50.839Z,22.75
2022-08-28T10:47:58.829Z,22.78
2022-08-28T10:51:05.934Z,23.17
2022-08-28T10:54:19.508Z,23.93
2022-08-28T10:57:37.303Z,23.90
2022-08-28T11:00:44.081Z,23.62
2022-08-28T11:03:50.315Z,23.63
2022-08-28T11:06:57.030Z,23.61
2022-08-28T11:10:20.122Z,23.78
2022-08-28T11:13:45.834Z,23.05
2022-08-28T11:16:50.081Z,22.71
2022-08-28T11:20:14.177Z,22.23
2022-08-28T11:23:23.195Z,22.04
2022-08-28T11:26:34.854Z,22.09
2022-08-28T11:30:02.056Z,22.07
2022-08-28T11:33:39.011Z,21.85
2022-08-28T11:37:00.992Z,21.64
2022-08-28T11:40:17.572Z,21.64
2022-08-28T11:43:37.358Z,21.70
2022-08-28T11:46:43.650Z,22.03
2022-08-28T11:49:46.746Z,22.60
2022-08-28T11:53:17.820Z,24.03
2022-08-28T11:56:36.853Z,25.25
2022-08-28T12:00:03.743Z,24.19
2022-08-28T12:03:13.461Z,23.86
2022-08-28T12:06:16.162Z,23.58
2022-08-28T12:09:41.422Z,23.09
2022-08-28T12:12:53.826Z,23.36
2022-08-28T12:16:05.504Z,24.55
2022-08-28T12:19:11.119Z,24.76
2022-08-28T12:22:16.426Z,25.72
2022-08-28T12:25:28.398Z,25.59
2022-08-28T12:28:33.163Z,24.95
2022-08-28T12:32:15.075Z,24.37
2022-08-28T12:35:21.516Z,23.75
2022-08-28T12:38:24.509Z,23.76
2022-08-28T12:41:28.298Z,24.28
2022-08-28T12:44:33.349Z,24.07
2022-08-28T12:47:37.014Z,24.06
2022-08-28T12:50:41.122Z,25.24
2022-08-28T12:53:46.176Z,25.29
2022-08-28T12:56:48.810Z,24.94
2022-08-28T12:59:53.061Z,24.48
2022-08-28T13:02:57.783Z,24.02
2022-08-28T13:06:05.624Z,23.41
2022-08-28T13:09:16.551Z,23.45
2022-08-28T13:12:22.243Z,24.52
2022-08-28T13:15:55.127Z,24.71
2022-08-28T13:19:13.553Z,24.05
2022-08-28T13:22:39.632Z,23.46
2022-08-28T13:25:42.291Z,23.34
2022-08-28T13:28:45.144Z,22.84
2022-08-28T13:31:57.164Z,23.17
2022-08-28T13:35:34.798Z,23.53
2022-08-28T13:38:38.893Z,23.43
2022-08-28T13:41:42.498Z,23.10
2022-08-28T13:44:50.401Z,23.53
2022-08-28T13:47:53.014Z,23.64
2022-08-28T13:51:00.121Z,23.70
2022-08-28T13:54:04.190Z,23.70
2022-08-28T13:57:09.198Z,23.51
2022-08-28T14:00:14.420Z,23.39
2022-08-28T14:03:35.322Z,23.11
2022-08-28T14:06:37.917Z,22.39
2022-08-28T14:09:42.733Z,22.32
2022-08-28T14:12:47.640Z,22.25
2022-08-28T14:15:50.275Z,22.27
2022-08-28T14:18:53.588Z,22.53
2022-08-28T14:21:57.368Z,22.19
2022-08-28T14:25:01.399Z,22.47
2022-08-28T14:28:04.598Z,22.61
2022-08-28T14:31:12.262Z,22.48
2022-08-28T14:34:21.304Z,22.45
2022-08-28T14:37:23.918Z,22.61
2022-08-28T14:40:27.921Z,22.69
2022-08-28T14:43:31.554Z,22.77
2022-08-28T14:46:36.598Z,22.52
2022-08-28T14:49:39.695Z,22.69
2022-08-28T14:52:42.849Z,22.62
2022-08-28T14:55:48.685Z,22.59
2022-08-28T14:58:51.449Z,22.23
2022-08-28T15:01:58.009Z,22.23
2022-08-28T15:05:01.011Z,22.33
2022-08-28T15:08:04.230Z,22.08
2022-08-28T15:11:08.558Z,21.95
2022-08-28T15:14:11.689Z,22.06
2022-08-28T15:17:14.642Z,22.04
2022-08-28T15:20:17.502Z,22.03
2022-08-28T15:23:20.195Z,22.28
2022-08-28T15:26:25.711Z,22.21
2022-08-28T15:29:29.847Z,22.38
2022-08-28T15:32:32.592Z,22.33
2022-08-28T15:35:37.030Z,22.27
2022-08-28T15:38:53.585Z,22.24
2022-08-28T15:42:01.314Z,22.07
2022-08-28T15:45:04.189Z,22.23
2022-08-28T15:48:06.942Z,22.09
2022-08-28T15:51:09.532Z,21.82
2022-08-28T15:54:13.269Z,21.72
2022-08-28T15:57:17.400Z,21.51
2022-08-28T16:00:20.114Z,21.51
2022-08-28T16:03:22.712Z,21.62
2022-08-28T16:06:26.763Z,21.33
2022-08-28T16:09:29.314Z,21.60
2022-08-28T16:12:33.313Z,21.45
2022-08-28T16:15:36.158Z,21.39
2022-08-28T16:18:39.019Z,21.43
2022-08-28T16:21:42.573Z,21.45
2022-08-28T16:24:45.810Z,21.35
2022-08-28T16:27:49.772Z,21.45
2022-08-28T16:30:52.840Z,20.99
2022-08-28T16:33:56.848Z,21.30
2022-08-28T16:36:59.879Z,21.04
2022-08-28T16:40:02.601Z,21.11
2022-08-28T16:43:06.560Z,21.02
2022-08-28T16:46:14.277Z,20.98
2022-08-28T16:49:16.952Z,20.80
2022-08-28T16:52:20.011Z,20.77
2022-08-28T16:55:22.785Z,20.92
2022-08-28T16:58:26.806Z,21.10
2022-08-28T17:01:29.562Z,21.02
2022-08-28T17:04:33.078Z,20.94
2022-08-28T17:07:35.972Z,21.29
2022-08-28T17:10:38.730Z,20.86
2022-08-28T17:13:42.730Z,20.67
2022-08-28T17:16:45.907Z,20.79
2022-08-28T17:19:48.512Z,20.49
2022-08-28T17:22:50.161Z,20.49
2022-08-28T17:25:52.742Z,20.42
2022-08-28T17:28:56.689Z,20.17
2022-08-28T17:31:59.354Z,20.33
2022-08-28T17:35:02.429Z,20.41
2022-08-28T17:38:05.068Z,20.29
2022-08-28T17:41:07.667Z,20.49
2022-08-28T17:44:12.085Z,20.50
2022-08-28T17:47:14.690Z,20.48
2022-08-28T17:50:17.464Z,20.51
2022-08-28T17:53:23.498Z,20.39
2022-08-28T17:56:35.757Z,20.29
2022-08-28T17:59:40.149Z,20.44
2022-08-28T18:02:43.013Z,20.30
2022-08-28T18:05:46.202Z,20.35
2022-08-28T18:08:50.933Z,20.02
2022-08-28T18:11:53.906Z,19.91
2022-08-28T18:14:57.994Z,20.09
2022-08-28T18:18:00.722Z,20.11
2022-08-28T18:21:03.329Z,19.92
2022-08-28T18:24:06.749Z,20.01
2022-08-28T18:27:09.356Z,19.97
2022-08-28T18:30:13.960Z,19.97
2022-08-28T18:33:18.609Z,19.83
2022-08-28T18:36:22.992Z,19.65
2022-08-28T18:39:29.778Z,19.75
2022-08-28T18:42:32.674Z,19.93
2022-08-28T18:45:36.775Z,19.76
2022-08-28T18:48:39.380Z,19.75
2022-08-28T18:51:42.940Z,19.68
2022-08-28T18:54:45.694Z,19.63
2022-08-28T18:57:49.512Z,19.52
2022-08-28T19:00:55.910Z,19.84
2022-08-28T19:03:58.523Z,19.71
2022-08-28T19:07:01.122Z,19.77
2022-08-28T19:10:05.560Z,19.67
2022-08-28T19:13:08.699Z,19.43
2022-08-28T19:16:16.989Z,19.78
2022-08-28T19:19:19.686Z,19.85
2022-08-28T19:22:23.324Z,19.65
2022-08-28T19:25:29.254Z,19.89
2022-08-28T19:28:32.011Z,19.62
2022-08-28T19:31:35.949Z,19.75
2022-08-28T19:34:38.604Z,19.87
2022-08-28T19:37:42.748Z,19.79
2022-08-28T19:40:45.809Z,19.83
2022-08-28T19:43:48.504Z,19.71
2022-08-28T19:46:52.429Z,19.52
2022-08-28T19:49:55.554Z,19.56
2022-08-28T19:52:59.987Z,19.52
2022-08-28T19:56:02.741Z,19.58
2022-08-28T19:59:07.523Z,19.64
2022-08-28T20:02:11.531Z,19.48
2022-08-28T20:05:14.487Z,19.51
2022-08-28T20:08:17.841Z,19.40
2022-08-28T20:11:24.894Z,19.38
2022-08-28T20:14:27.803Z,19.33
2022-08-28T20:17:31.805Z,19.36
2022-08-28T20:20:34.462Z,19.21
2022-08-28T20:23:37.045Z,19.26
2022-08-28T20:26:39.776Z,19.26
2022-08-28T20:29:42.486Z,19.19
2022-08-28T20:32:46.462Z,19.02
2022-08-28T20:35:49.094Z,19.01
2022-08-28T20:38:51.718Z,18.94
2022-08-28T20:41:54.344Z,18.99
2022-08-28T20:44:57.581Z,19.16
2022-08-28T20:48:01.527Z,19.15
2022-08-28T20:51:04.483Z,19.05
2022-08-28T20:54:07.130Z,19.13
2022-08-28T20:57:12.959Z,19.32
2022-08-28T21:00:15.856Z,19.39
2022-08-28T21:03:20.110Z,19.30
2022-08-28T21:06:29.759Z,19.30
2022-08-28T21:09:33.409Z,19.46
2022-08-28T21:12:54.967Z,19.43
2022-08-28T21:15:57.554Z,19.52
2022-08-28T21:19:16.966Z,19.42
2022-08-28T21:22:20.019Z,19.48
2022-08-28T21:25:25.032Z,19.33
2022-08-28T21:28:27.732Z,19.49
2022-08-28T21:31:30.348Z,19.35
2022-08-28T21:34:34.277Z,19.15
2022-08-28T21:37:36.881Z,19.33
2022-08-28T21:40:40.943Z,19.37
2022-08-28T21:43:45.054Z,19.32
2022-08-28T21:46:47.643Z,19.25
2022-08-28T21:49:52.509Z,19.36
2022-08-28T21:52:55.115Z,19.41
2022-08-28T21:55:58.089Z,19.44
2022-08-28T21:59:01.101Z,19.50
2022-08-28T22:02:04.362Z,19.52
2022-08-28T22:05:08.967Z,19.50
2022-08-28T22:08:11.872Z,19.41
2022-08-28T22:11:15.632Z,19.35
2022-08-28T22:14:19.577Z,19.39
2022-08-28T22:17:22.545Z,19.38
2022-08-28T22:20:26.679Z,19.47
2022-08-28T22:23:34.868Z,19.34
2022-08-28T22:26:37.822Z,19.34
2022-08-28T22:29:40.544Z,19.40
2022-08-28T22:32:43.162Z,19.41
2022-08-28T22:35:49.389Z,19.51
2022-08-28T22:38:53.225Z,19.46
2022-08-28T22:41:56.085Z,19.45
2022-08-28T22:44:59.538Z,19.54
2022-08-28T22:48:02.189Z,19.25
2022-08-28T22:51:08.684Z,19.35
2022-08-28T22:54:11.308Z,19.36
2022-08-28T22:57:13.875Z,19.35
2022-08-28T23:00:21.603Z,19.09
2022-08-28T23:03:24.346Z,19.16
2022-08-28T23:06:28.491Z,19.33
2022-08-28T23:09:31.170Z,19.08
2022-08-28T23:12:36.669Z,19.33
2022-08-28T23:15:39.374Z,19.47
2022-08-28T23:19:06.419Z,19.23
2022-08-28T23:22:06.652Z,19.36
2022-08-28T23:25:13.830Z,19.39
2022-08-28T23:28:16.663Z,19.25
2022-08-28T23:31:19.573Z,19.18
2022-08-28T23:34:22.855Z,19.00
2022-08-28T23:37:26.908Z,19.32
2022-08-28T23:40:30.391Z,19.35
2022-08-28T23:43:33.496Z,19.31
2022-08-28T23:46:36.462Z,19.23
2022-08-28T23:49:42.798Z,19.38
2022-08-28T23:52:47.192Z,19.31
2022-08-28T23:55:49.963Z,19.42
2022-08-28T23:58:54.202Z,19.41
